Time;durP1;ratioP1;P1;durP2;ratioP2;P2;SDS_P1;SDS_P2;PMS_P1;PMS_P2;Temp;Humidity;BMP_temperature;BMP_pressure;BME280_temperature;BME280_humidity;BME280_pressure;Samples;Min_cycle;Max_cycle;Signal;HPM_P1;HPM_P2
2022/07/31 00:01:39;;;;;;;7.47;2.10;;;18.50;99.90;;;;;;4718161;30;20052;-91
2022/07/31 00:04:08;;;;;;;4.95;2.00;;;18.50;99.90;;;;;;4719003;30;20443;-91
2022/07/31 00:06:34;;;;;;;6.75;1.52;;;18.50;99.90;;;;;;4717300;30;20049;-91
2022/07/31 00:08:59;;;;;;;4.78;1.85;;;18.50;99.90;;;;;;4718743;30;20151;-91
2022/07/31 00:11:25;;;;;;;7.30;2.33;;;18.50;99.90;;;;;;4717857;30;20060;-92
2022/07/31 00:13:51;;;;;;;8.23;1.80;;;18.40;99.90;;;;;;4718691;30;20048;-92
2022/07/31 00:16:16;;;;;;;5.13;1.80;;;18.40;99.90;;;;;;4718460;30;20451;-91
2022/07/31 00:18:42;;;;;;;6.10;2.38;;;18.40;99.90;;;;;;4718606;30;20498;-91
2022/07/31 00:21:09;;;;;;;6.43;2.00;;;18.40;99.90;;;;;;4718382;30;20444;-90
2022/07/31 00:23:35;;;;;;;10.05;1.92;;;18.40;99.90;;;;;;4725110;30;20120;-90
2022/07/31 00:26:00;;;;;;;10.07;1.80;;;18.40;99.90;;;;;;4720940;30;20151;-91
2022/07/31 00:28:30;;;;;;;5.68;2.13;;;18.40;99.90;;;;;;4736311;30;20143;-91
2022/07/31 00:30:55;;;;;;;5.60;2.30;;;18.40;99.90;;;;;;4718158;30;20164;-91
2022/07/31 00:33:21;;;;;;;6.50;2.25;;;18.40;99.90;;;;;;4731834;30;20056;-92
2022/07/31 00:35:47;;;;;;;9.88;2.22;;;18.40;99.90;;;;;;4717756;30;20462;-92
2022/07/31 00:38:12;;;;;;;5.22;2.00;;;18.40;99.90;;;;;;4717757;30;20053;-91
2022/07/31 00:40:50;;;;;;;4.78;1.83;;;18.40;99.90;;;;;;4703548;30;20091;-92
2022/07/31 00:43:17;;;;;;;4.82;1.75;;;18.30;99.90;;;;;;4718429;30;20056;-92
2022/07/31 00:45:44;;;;;;;8.80;1.83;;;18.40;99.90;;;;;;4717805;30;20052;-91
2022/07/31 00:48:09;;;;;;;4.50;1.58;;;18.40;99.90;;;;;;4717680;30;20056;-91
2022/07/31 00:50:36;;;;;;;6.45;1.90;;;18.40;99.90;;;;;;4732147;30;20056;-92
2022/07/31 00:53:02;;;;;;;5.05;1.83;;;18.40;99.90;;;;;;4718578;30;20052;-91
2022/07/31 00:55:28;;;;;;;5.90;1.70;;;18.40;99.90;;;;;;4718034;30;20052;-91
2022/07/31 00:57:54;;;;;;;5.80;1.90;;;18.40;99.90;;;;;;4717708;30;20083;-91
2022/07/31 01:00:19;;;;;;;5.32;1.85;;;18.30;99.90;;;;;;4731992;30;20577;-91
2022/07/31 01:02:45;;;;;;;8.07;1.75;;;18.30;99.90;;;;;;4731933;30;20064;-91
2022/07/31 01:05:11;;;;;;;7.35;1.90;;;18.30;99.90;;;;;;4717641;30;20048;-91
2022/07/31 01:07:36;;;;;;;6.78;2.00;;;18.20;99.90;;;;;;4717650;30;20063;-91
2022/07/31 01:10:08;;;;;;;4.65;1.80;;;18.20;99.90;;;;;;4717523;30;20088;-91
2022/07/31 01:12:44;;;;;;;4.82;1.55;;;18.20;99.90;;;;;;4717629;30;20049;-91
2022/07/31 01:15:12;;;;;;;7.68;2.13;;;18.10;99.90;;;;;;4717234;30;20127;-91
2022/07/31 01:17:40;;;;;;;9.90;2.10;;;18.10;99.90;;;;;;4731501;30;20053;-91
2022/07/31 01:20:07;;;;;;;10.95;1.60;;;18.00;99.90;;;;;;4717063;30;20056;-90
2022/07/31 01:22:56;;;;;;;7.43;1.60;;;18.00;99.90;;;;;;4717067;30;20418;-90
2022/07/31 01:28:28;;;;;;;5.43;1.95;;;17.90;99.90;;;;;;4699886;30;20060;-91
2022/07/31 01:30:59;;;;;;;12.77;2.08;;;17.90;99.90;;;;;;4685685;30;20057;-91
2022/07/31 01:33:31;;;;;;;4.28;1.63;;;17.80;99.90;;;;;;4698954;30;20140;-90
2022/07/31 01:36:09;;;;;;;6.05;1.90;;;17.80;99.90;;;;;;4702461;30;20056;-91
2022/07/31 01:38:43;;;;;;;4.63;1.70;;;17.80;99.90;;;;;;4699842;30;20076;-90
2022/07/31 01:41:12;;;;;;;3.63;1.58;;;17.80;99.90;;;;;;4699495;30;20139;-90
2022/07/31 01:43:41;;;;;;;5.93;1.90;;;17.80;99.90;;;;;;4699761;30;20088;-90
2022/07/31 01:46:11;;;;;;;10.73;2.22;;;17.80;99.90;;;;;;4699490;30;20053;-91
2022/07/31 01:48:38;;;;;;;5.57;1.60;;;17.70;99.90;;;;;;4699593;30;20110;-91
2022/07/31 01:51:07;;;;;;;7.80;2.00;;;17.70;99.90;;;;;;4699699;30;20055;-91
2022/07/31 01:53:35;;;;;;;3.53;1.70;;;17.70;99.90;;;;;;4699517;30;20064;-91
2022/07/31 01:56:01;;;;;;;3.50;2.03;;;17.70;99.90;;;;;;4699718;30;20080;-91
2022/07/31 01:58:31;;;;;;;4.07;2.15;;;17.70;99.90;;;;;;4699139;30;20053;-91
2022/07/31 02:00:58;;;;;;;9.27;2.13;;;17.70;99.90;;;;;;4699371;30;20076;-90
2022/07/31 02:03:25;;;;;;;5.13;1.90;;;17.70;99.90;;;;;;4698940;30;20060;-91
2022/07/31 02:05:52;;;;;;;9.30;1.85;;;17.70;99.90;;;;;;4699736;30;20146;-90
2022/07/31 02:08:20;;;;;;;5.13;1.90;;;17.70;99.90;;;;;;4699302;30;20148;-91
2022/07/31 02:10:46;;;;;;;4.05;1.75;;;17.70;99.90;;;;;;4699315;30;20419;-91
2022/07/31 02:13:13;;;;;;;7.47;2.33;;;17.70;99.90;;;;;;4699372;30;20053;-91
2022/07/31 02:15:41;;;;;;;5.70;1.95;;;17.60;99.90;;;;;;4699213;30;20041;-92
2022/07/31 02:18:11;;;;;;;5.50;2.30;;;17.70;99.90;;;;;;4699607;30;20084;-91
2022/07/31 02:20:39;;;;;;;11.77;2.35;;;17.60;99.90;;;;;;4699524;30;20475;-91
2022/07/31 02:23:06;;;;;;;14.57;2.47;;;17.70;99.90;;;;;;4699860;30;20083;-91
2022/07/31 02:25:34;;;;;;;6.90;2.30;;;17.70;99.90;;;;;;4713822;30;20064;-91
2022/07/31 02:28:04;;;;;;;7.30;2.33;;;17.70;99.90;;;;;;4699119;30;20056;-91
2022/07/31 02:30:31;;;;;;;6.78;2.00;;;17.70;99.90;;;;;;4717115;30;20053;-91
2022/07/31 02:32:57;;;;;;;6.25;2.13;;;17.70;99.90;;;;;;4717334;30;20146;-91
2022/07/31 02:35:24;;;;;;;4.78;1.77;;;17.70;99.90;;;;;;4716365;30;20720;-90
2022/07/31 02:37:53;;;;;;;5.47;2.45;;;17.70;99.90;;;;;;4702586;30;20045;-91
2022/07/31 02:40:19;;;;;;;5.43;2.35;;;17.70;99.90;;;;;;4702690;30;20490;-89
2022/07/31 02:42:46;;;;;;;9.20;2.20;;;17.70;99.90;;;;;;4717131;30;20074;-90
2022/07/31 02:45:13;;;;;;;8.07;1.98;;;17.70;99.90;;;;;;4702279;30;20057;-91
2022/07/31 02:47:39;;;;;;;6.72;2.30;;;17.70;99.90;;;;;;4716765;30;20120;-91
2022/07/31 02:50:05;;;;;;;8.88;3.00;;;17.70;99.90;;;;;;4717585;30;20048;-90
2022/07/31 02:52:33;;;;;;;6.88;2.58;;;17.70;99.90;;;;;;4716911;30;20111;-90
2022/07/31 02:55:00;;;;;;;8.25;2.30;;;17.70;99.90;;;;;;4701895;30;20134;-91
2022/07/31 02:57:26;;;;;;;5.80;2.25;;;17.70;99.90;;;;;;4701852;30;20068;-91
2022/07/31 02:59:51;;;;;;;11.13;2.88;;;17.70;99.90;;;;;;4702068;30;20087;-91
2022/07/31 03:02:17;;;;;;;10.57;2.25;;;17.60;99.90;;;;;;4716418;30;20060;-91
2022/07/31 03:04:43;;;;;;;5.70;2.38;;;17.60;99.90;;;;;;4702043;30;20436;-90
2022/07/31 03:07:09;;;;;;;5.60;2.47;;;17.60;99.90;;;;;;4701630;30;20057;-90
2022/07/31 03:09:35;;;;;;;8.57;2.90;;;17.60;99.90;;;;;;4701860;30;20073;-90
2022/07/31 03:12:01;;;;;;;5.43;2.20;;;17.70;99.90;;;;;;4701973;30;20128;-90
2022/07/31 03:14:29;;;;;;;5.55;1.92;;;17.70;99.90;;;;;;4701689;30;20513;-89
2022/07/31 03:16:57;;;;;;;5.43;2.30;;;17.60;99.90;;;;;;4701821;30;20747;-90
2022/07/31 03:19:23;;;;;;;7.15;2.63;;;17.60;99.90;;;;;;4701747;30;20549;-90
2022/07/31 03:21:50;;;;;;;4.40;2.20;;;17.60;99.90;;;;;;4716402;30;20057;-91
2022/07/31 03:24:16;;;;;;;8.70;2.85;;;17.70;99.90;;;;;;4727842;30;20109;-91
2022/07/31 03:26:42;;;;;;;6.53;2.50;;;17.70;99.90;;;;;;4719324;30;20056;-90
2022/07/31 03:29:08;;;;;;;6.78;2.15;;;17.60;99.90;;;;;;4719036;30;20063;-90
2022/07/31 03:31:40;;;;;;;4.05;2.20;;;17.70;99.90;;;;;;4718697;30;20044;-90
2022/07/31 03:34:05;;;;;;;3.90;2.05;;;17.60;99.90;;;;;;4733094;30;20174;-91
2022/07/31 03:36:31;;;;;;;7.43;2.40;;;17.60;99.90;;;;;;4704051;30;20095;-91
2022/07/31 03:38:57;;;;;;;5.50;2.17;;;17.60;99.90;;;;;;4704193;30;20505;-91
2022/07/31 03:41:23;;;;;;;5.25;2.15;;;17.50;99.90;;;;;;4703820;30;20056;-90
2022/07/31 03:43:49;;;;;;;5.70;2.10;;;17.50;99.90;;;;;;4735599;30;20201;-91
2022/07/31 03:46:18;;;;;;;5.53;2.10;;;17.40;99.90;;;;;;4738620;30;20128;-91
2022/07/31 03:48:44;;;;;;;8.35;2.40;;;17.40;99.90;;;;;;4719174;30;20063;-92
2022/07/31 03:51:10;;;;;;;5.57;2.35;;;17.40;99.90;;;;;;4719200;30;20052;-91
2022/07/31 03:53:36;;;;;;;7.55;2.30;;;17.40;99.90;;;;;;4736557;30;20417;-92
2022/07/31 03:56:04;;;;;;;8.23;2.58;;;17.30;99.90;;;;;;4737044;30;20099;-91
2022/07/31 03:58:30;;;;;;;6.13;2.38;;;17.30;99.90;;;;;;4736226;30;20059;-92
2022/07/31 04:00:56;;;;;;;10.48;2.60;;;17.30;99.90;;;;;;4735582;30;20056;-90
2022/07/31 04:03:22;;;;;;;7.57;2.13;;;17.30;99.90;;;;;;4733892;30;20515;-92
2022/07/31 04:05:47;;;;;;;5.00;2.33;;;17.30;99.90;;;;;;4735839;30;20060;-91
2022/07/31 04:08:14;;;;;;;5.82;2.63;;;17.20;99.90;;;;;;4735811;30;20048;-91
2022/07/31 04:10:40;;;;;;;6.75;1.90;;;17.20;99.90;;;;;;4736018;30;20478;-92
2022/07/31 04:13:06;;;;;;;3.65;2.33;;;17.20;99.90;;;;;;4736038;30;20091;-92
2022/07/31 04:15:32;;;;;;;6.57;2.58;;;17.20;99.90;;;;;;4735571;30;20048;-92
2022/07/31 04:17:59;;;;;;;10.07;2.38;;;17.30;99.90;;;;;;4736307;30;20116;-91
2022/07/31 04:20:25;;;;;;;5.43;2.10;;;17.30;99.90;;;;;;4735183;30;20048;-91
2022/07/31 04:22:52;;;;;;;5.93;2.05;;;17.30;99.90;;;;;;4735943;30;20059;-91
2022/07/31 04:25:17;;;;;;;5.80;2.35;;;17.40;99.90;;;;;;4721262;30;20516;-91
2022/07/31 04:27:43;;;;;;;9.27;2.13;;;17.40;99.90;;;;;;4735280;30;20138;-91
2022/07/31 04:30:09;;;;;;;7.30;2.22;;;17.40;99.90;;;;;;4736003;30;20143;-91
2022/07/31 04:32:35;;;;;;;3.90;2.10;;;17.50;99.90;;;;;;4735243;30;20202;-91
2022/07/31 04:35:02;;;;;;;5.22;2.05;;;17.50;99.90;;;;;;4736005;30;20132;-93
2022/07/31 04:37:27;;;;;;;6.50;2.47;;;17.60;99.90;;;;;;4735607;30;20052;-92
2022/07/31 04:39:53;;;;;;;4.35;1.92;;;17.60;99.90;;;;;;4735594;30;20052;-92
2022/07/31 04:42:19;;;;;;;5.30;2.20;;;17.60;99.90;;;;;;4735689;30;20135;-91
2022/07/31 04:44:45;;;;;;;8.57;1.83;;;17.70;99.90;;;;;;4720978;30;20048;-92
2022/07/31 04:47:11;;;;;;;8.63;2.10;;;17.70;99.90;;;;;;4720788;30;20059;-90
2022/07/31 04:49:37;;;;;;;7.97;2.45;;;17.70;99.90;;;;;;4720937;30;20084;-91
2022/07/31 04:52:06;;;;;;;8.55;2.15;;;17.70;99.90;;;;;;4720743;30;20056;-91
2022/07/31 04:54:40;;;;;;;4.30;1.50;;;17.80;99.90;;;;;;4720986;30;20051;-91
2022/07/31 04:57:06;;;;;;;9.73;2.17;;;17.80;99.90;;;;;;4720547;30;20091;-90
2022/07/31 04:59:32;;;;;;;6.05;1.80;;;17.80;99.90;;;;;;4720606;30;20237;-90
2022/07/31 05:01:57;;;;;;;7.93;2.15;;;17.90;99.90;;;;;;4720356;30;20145;-91
2022/07/31 05:04:25;;;;;;;8.00;1.70;;;17.90;99.90;;;;;;4720446;30;20421;-91
2022/07/31 05:06:55;;;;;;;4.97;2.00;;;17.90;99.90;;;;;;4735079;30;20052;-90
2022/07/31 05:09:22;;;;;;;5.75;1.60;;;17.90;99.90;;;;;;4720518;30;20143;-92
2022/07/31 05:11:49;;;;;;;4.20;1.70;;;17.90;99.90;;;;;;4734450;30;20048;-92
2022/07/31 05:14:16;;;;;;;7.82;1.83;;;18.00;99.90;;;;;;4735164;30;20433;-92
2022/07/31 05:16:42;;;;;;;9.15;2.25;;;18.00;99.90;;;;;;4734747;30;20056;-92
2022/07/31 05:19:08;;;;;;;8.18;2.10;;;18.10;99.90;;;;;;4720319;30;20051;-91
2022/07/31 05:21:34;;;;;;;4.45;2.00;;;18.20;99.90;;;;;;4720226;30;20073;-92
2022/07/31 05:24:00;;;;;;;6.10;2.03;;;18.30;99.90;;;;;;4712337;30;20137;-92
2022/07/31 05:26:27;;;;;;;5.68;1.70;;;18.40;99.90;;;;;;4702351;30;20478;-92
2022/07/31 05:28:55;;;;;;;9.15;2.20;;;18.40;99.90;;;;;;4717278;30;20332;-90
2022/07/31 05:31:21;;;;;;;5.57;1.88;;;18.40;99.90;;;;;;4716952;30;20049;-92
2022/07/31 05:33:49;;;;;;;5.10;2.05;;;18.50;99.90;;;;;;4717535;30;20398;-92
2022/07/31 05:36:15;;;;;;;5.90;2.10;;;18.50;99.90;;;;;;4702669;30;20048;-93
2022/07/31 05:38:41;;;;;;;8.57;2.40;;;18.50;99.90;;;;;;4702625;30;20114;-93
2022/07/31 05:41:07;;;;;;;6.38;2.08;;;18.50;99.90;;;;;;4702394;30;20052;-92
2022/07/31 05:43:33;;;;;;;7.05;1.98;;;18.50;99.90;;;;;;4731618;30;20056;-94
2022/07/31 05:45:59;;;;;;;12.13;2.17;;;18.50;99.90;;;;;;4731902;30;20060;-93
2022/07/31 05:48:25;;;;;;;3.28;1.95;;;18.60;99.90;;;;;;4731728;30;20675;-91
2022/07/31 05:50:51;;;;;;;7.80;2.20;;;18.60;99.90;;;;;;4731739;30;20517;-92
2022/07/31 05:53:19;;;;;;;4.93;1.90;;;18.60;99.90;;;;;;4716967;30;20108;-91
2022/07/31 05:55:47;;;;;;;9.15;2.28;;;18.60;99.90;;;;;;4703032;30;20105;-91
2022/07/31 05:58:13;;;;;;;9.82;2.55;;;18.70;99.90;;;;;;4702194;30;20056;-91
2022/07/31 06:00:40;;;;;;;8.48;2.35;;;18.60;99.90;;;;;;4717321;30;20049;-90
2022/07/31 06:03:06;;;;;;;4.60;1.98;;;18.70;99.90;;;;;;4697265;30;20053;-92
2022/07/31 06:05:33;;;;;;;8.82;2.40;;;18.80;99.90;;;;;;4732148;30;20063;-91
2022/07/31 06:07:59;;;;;;;5.88;2.60;;;18.80;99.90;;;;;;4717216;30;20045;-91
2022/07/31 06:10:26;;;;;;;7.35;2.53;;;18.90;99.90;;;;;;4711255;30;20525;-92
2022/07/31 06:12:53;;;;;;;8.70;3.22;;;18.90;99.90;;;;;;4703247;30;20502;-91
2022/07/31 06:15:19;;;;;;;5.78;2.47;;;18.90;99.90;;;;;;4694981;30;20128;-91
2022/07/31 06:17:48;;;;;;;7.50;2.65;;;18.90;99.90;;;;;;4699166;30;20061;-92
2022/07/31 06:20:14;;;;;;;6.43;2.60;;;19.00;99.90;;;;;;4687113;30;20124;-91
2022/07/31 06:22:42;;;;;;;14.00;2.90;;;19.10;99.90;;;;;;4713250;30;20057;-92
2022/07/31 06:25:09;;;;;;;8.95;3.05;;;19.10;99.90;;;;;;4698743;30;20479;-92
2022/07/31 06:27:35;;;;;;;8.52;2.95;;;19.20;99.90;;;;;;4698659;30;20049;-92
2022/07/31 06:30:04;;;;;;;4.07;2.45;;;19.20;99.90;;;;;;4684538;30;20462;-93
2022/07/31 06:32:31;;;;;;;8.95;2.90;;;19.30;99.90;;;;;;4691611;30;20073;-92
2022/07/31 06:34:57;;;;;;;4.50;2.60;;;19.40;99.90;;;;;;4698613;30;20460;-92
2022/07/31 06:37:22;;;;;;;5.93;2.67;;;19.50;99.90;;;;;;4705980;30;20056;-93
2022/07/31 06:39:48;;;;;;;8.57;2.72;;;19.50;99.90;;;;;;4701943;30;20115;-94
2022/07/31 06:42:18;;;;;;;11.90;3.10;;;19.70;99.90;;;;;;4706871;30;20529;-93
2022/07/31 06:44:44;;;;;;;10.27;2.80;;;19.80;99.90;;;;;;4720305;30;20057;-93
2022/07/31 06:47:10;;;;;;;16.02;3.13;;;19.90;99.90;;;;;;4691296;30;20119;-82
2022/07/31 06:49:36;;;;;;;6.80;2.53;;;19.90;99.90;;;;;;4705425;30;20068;-92
2022/07/31 06:52:02;;;;;;;7.05;3.30;;;20.00;99.90;;;;;;4716762;30;20059;-92
2022/07/31 06:54:28;;;;;;;8.23;3.17;;;20.10;99.90;;;;;;4691639;30;20128;-91
2022/07/31 06:56:54;;;;;;;6.80;3.00;;;20.10;99.90;;;;;;4692304;30;20053;-93
2022/07/31 06:59:20;;;;;;;11.77;3.30;;;20.20;99.90;;;;;;4687051;30;20140;-91
2022/07/31 07:01:46;;;;;;;11.40;3.47;;;20.20;99.90;;;;;;4716154;30;20052;-92
2022/07/31 07:04:12;;;;;;;9.05;3.20;;;20.30;99.90;;;;;;4693729;30;20064;-92
2022/07/31 07:06:38;;;;;;;10.35;2.70;;;20.30;99.90;;;;;;4719069;30;20059;-94
2022/07/31 07:09:04;;;;;;;7.90;3.17;;;20.40;99.90;;;;;;4701655;30;20080;-93
2022/07/31 07:11:39;;;;;;;6.13;2.83;;;20.40;99.90;;;;;;4691656;30;20083;-93
2022/07/31 07:14:05;;;;;;;7.50;2.88;;;20.50;99.90;;;;;;4701860;30;20155;-92
2022/07/31 07:16:31;;;;;;;6.78;3.10;;;20.50;99.90;;;;;;4704384;30;20048;-91
2022/07/31 07:18:57;;;;;;;9.90;2.70;;;20.50;99.90;;;;;;4704725;30;20094;-90
2022/07/31 07:21:22;;;;;;;5.30;2.72;;;20.50;99.90;;;;;;4704137;30;20059;-90
2022/07/31 07:23:48;;;;;;;6.07;2.97;;;20.50;99.90;;;;;;4719097;30;20064;-91
2022/07/31 07:26:14;;;;;;;9.27;2.80;;;20.60;99.90;;;;;;4706929;30;20410;-91
2022/07/31 07:28:40;;;;;;;8.00;3.00;;;20.50;99.90;;;;;;4716697;30;20057;-92
2022/07/31 07:31:06;;;;;;;7.05;3.15;;;20.60;99.90;;;;;;4720613;30;20529;-89
2022/07/31 07:33:32;;;;;;;6.10;2.80;;;20.60;99.90;;;;;;4718927;30;20758;-92
2022/07/31 07:36:01;;;;;;;9.38;3.15;;;20.60;99.90;;;;;;4704498;30;20052;-92
2022/07/31 07:38:27;;;;;;;7.35;2.70;;;20.70;99.90;;;;;;4703911;30;20064;-92
2022/07/31 07:40:52;;;;;;;6.28;3.17;;;20.70;99.90;;;;;;4715900;30;20197;-92
2022/07/31 07:43:18;;;;;;;8.70;3.08;;;20.80;99.90;;;;;;4735969;30;20064;-90
2022/07/31 07:45:44;;;;;;;11.52;2.90;;;20.80;99.90;;;;;;4726058;30;20055;-91
2022/07/31 07:48:10;;;;;;;9.30;3.72;;;20.90;99.90;;;;;;4725040;30;20140;-92
2022/07/31 07:50:36;;;;;;;8.20;3.40;;;20.90;99.90;;;;;;4715819;30;20053;-91
2022/07/31 07:53:02;;;;;;;8.35;3.28;;;21.00;99.90;;;;;;4715476;30;20086;-91
2022/07/31 07:55:28;;;;;;;6.05;2.85;;;21.10;99.90;;;;;;4701181;30;20152;-92
2022/07/31 07:57:54;;;;;;;8.85;3.10;;;21.10;99.90;;;;;;4701524;30;20515;-95
2022/07/31 08:00:20;;;;;;;7.63;3.45;;;21.20;99.90;;;;;;4708919;30;20048;-91
2022/07/31 08:02:52;;;;;;;15.55;3.75;;;21.30;99.90;;;;;;4704432;30;20148;-90
2022/07/31 08:05:17;;;;;;;6.30;3.63;;;21.30;99.90;;;;;;4704226;30;20045;-90
2022/07/31 08:07:44;;;;;;;8.88;3.42;;;21.40;99.90;;;;;;4712984;30;20383;-91
2022/07/31 08:10:17;;;;;;;7.75;3.30;;;21.30;99.90;;;;;;4694368;30;20044;-91
2022/07/31 08:12:49;;;;;;;;;;;21.60;99.90;;;;;;4696344;30;20093;-90
2022/07/31 08:15:15;;;;;;;6.10;3.70;;;21.70;99.90;;;;;;4696376;30;19957;-90
2022/07/31 08:17:41;;;;;;;8.43;3.80;;;21.90;99.90;;;;;;4718119;30;20048;-90
2022/07/31 08:20:08;;;;;;;8.07;4.15;;;22.00;99.90;;;;;;4709105;30;20438;-91
2022/07/31 08:22:33;;;;;;;14.57;4.07;;;22.10;99.90;;;;;;4686596;30;20494;-90
2022/07/31 08:24:59;;;;;;;12.60;4.40;;;22.30;99.90;;;;;;4741956;30;20165;-89
2022/07/31 08:27:31;;;;;;;15.70;4.18;;;22.50;99.90;;;;;;4733873;30;20063;-89
2022/07/31 08:29:59;;;;;;;8.18;4.50;;;22.50;99.90;;;;;;4723166;30;20106;-90
2022/07/31 08:32:26;;;;;;;9.63;4.15;;;22.50;99.90;;;;;;4718001;30;20103;-90
2022/07/31 08:34:52;;;;;;;11.27;4.20;;;22.50;99.90;;;;;;4717719;30;20048;-90
2022/07/31 08:37:18;;;;;;;7.85;4.30;;;22.50;99.90;;;;;;4717615;30;20052;-90
2022/07/31 08:39:45;;;;;;;10.05;4.50;;;22.50;99.90;;;;;;4711313;30;20106;-89
2022/07/31 08:42:11;;;;;;;9.93;4.85;;;22.50;99.90;;;;;;4721298;30;20047;-90
2022/07/31 08:44:39;;;;;;;7.95;3.90;;;22.50;99.90;;;;;;4720724;30;20524;-90
2022/07/31 08:47:06;;;;;;;9.00;4.22;;;22.50;99.90;;;;;;4720506;30;20055;-91
2022/07/31 08:49:36;;;;;;;10.75;4.15;;;22.50;99.90;;;;;;4709967;30;20056;-91
2022/07/31 08:52:02;;;;;;;7.93;3.22;;;22.60;99.90;;;;;;4720459;30;20059;-91
2022/07/31 08:54:31;;;;;;;10.60;4.00;;;22.50;99.90;;;;;;4706163;30;20052;-90
2022/07/31 08:56:57;;;;;;;8.68;3.90;;;22.50;99.90;;;;;;4702952;30;20095;-91
2022/07/31 08:59:23;;;;;;;10.13;4.10;;;22.40;99.90;;;;;;4703334;30;20528;-91
2022/07/31 09:01:55;;;;;;;7.43;4.30;;;22.30;99.90;;;;;;4708280;30;20152;-90
2022/07/31 09:04:22;;;;;;;9.15;4.10;;;22.20;99.90;;;;;;4702613;30;20057;-90
2022/07/31 09:06:49;;;;;;;12.73;4.45;;;22.10;99.90;;;;;;4702575;30;20089;-90
2022/07/31 09:09:16;;;;;;;7.85;4.03;;;22.00;99.90;;;;;;4702752;30;20102;-90
2022/07/31 09:11:48;;;;;;;7.50;4.18;;;21.90;99.90;;;;;;4695706;30;20048;-90
2022/07/31 09:14:25;;;;;;;13.90;4.38;;;21.80;99.90;;;;;;4702964;30;20053;-91
2022/07/31 09:16:53;;;;;;;11.23;4.55;;;21.70;99.90;;;;;;4702948;30;20060;-90
2022/07/31 09:19:21;;;;;;;8.85;4.93;;;21.60;99.90;;;;;;4702865;30;20080;-90
2022/07/31 09:21:47;;;;;;;14.00;5.30;;;21.50;99.90;;;;;;4701521;30;20061;-91
2022/07/31 09:24:29;;;;;;;9.05;5.28;;;21.40;99.90;;;;;;4692831;30;20057;-90
2022/07/31 09:27:04;;;;;;;12.50;5.53;;;21.30;99.90;;;;;;4684930;30;20056;-90
2022/07/31 09:29:43;;;;;;;10.23;5.53;;;21.20;99.90;;;;;;4684588;30;20057;-90
2022/07/31 09:32:11;;;;;;;9.27;6.15;;;21.20;99.90;;;;;;4683985;30;20041;-90
2022/07/31 09:34:38;;;;;;;13.68;6.75;;;21.10;99.90;;;;;;4684978;30;20069;-90
2022/07/31 09:37:10;;;;;;;13.48;7.60;;;21.10;99.90;;;;;;4684435;30;20049;-91
2022/07/31 09:39:37;;;;;;;11.20;7.65;;;21.10;99.90;;;;;;4684549;30;20060;-91
2022/07/31 09:42:05;;;;;;;14.10;7.88;;;21.10;99.90;;;;;;4691888;30;20048;-92
2022/07/31 09:44:37;;;;;;;12.68;8.00;;;21.10;99.90;;;;;;4713605;30;20056;-92
2022/07/31 09:47:03;;;;;;;11.63;7.55;;;21.20;99.90;;;;;;4712962;30;20053;-92
2022/07/31 09:49:31;;;;;;;17.38;8.85;;;21.20;99.90;;;;;;4698586;30;20060;-91
2022/07/31 09:51:59;;;;;;;14.13;8.57;;;21.20;99.90;;;;;;4702411;30;20060;-91
2022/07/31 09:54:34;;;;;;;10.63;8.38;;;21.10;99.90;;;;;;4708696;30;20048;-92
2022/07/31 09:57:11;;;;;;;16.85;8.43;;;21.00;99.90;;;;;;4688467;30;20502;-91
2022/07/31 09:59:37;;;;;;;13.73;9.05;;;20.90;99.90;;;;;;4686404;30;20061;-91
2022/07/31 10:02:04;;;;;;;17.55;8.60;;;20.80;99.90;;;;;;4701445;30;20083;-90
2022/07/31 10:04:31;;;;;;;13.80;8.48;;;20.80;99.90;;;;;;4716291;30;20052;-92
2022/07/31 10:07:02;;;;;;;15.82;8.40;;;20.70;99.90;;;;;;4716046;30;20065;-91
2022/07/31 10:09:31;;;;;;;14.60;9.23;;;20.60;99.90;;;;;;4715626;30;20080;-92
2022/07/31 10:12:02;;;;;;;15.18;9.00;;;20.60;99.90;;;;;;4716278;30;20068;-91
2022/07/31 10:14:31;;;;;;;18.50;9.63;;;20.50;99.90;;;;;;4716115;30;20139;-90
2022/07/31 10:16:59;;;;;;;18.73;10.10;;;20.50;99.90;;;;;;4715864;30;20053;-90
2022/07/31 10:19:37;;;;;;;16.30;9.88;;;20.50;99.90;;;;;;4700982;30;20061;-89
2022/07/31 10:22:04;;;;;;;20.17;10.38;;;20.50;99.90;;;;;;4700284;30;20494;-91
2022/07/31 10:29:08;;;;;;;15.45;10.40;;;21.00;99.90;;;;;;4743493;30;20063;-88
2022/07/31 10:31:34;;;;;;;;;;;20.60;99.90;;;;;;4694080;30;20054;-88
2022/07/31 10:34:33;;;;;;;16.13;9.80;;;20.80;99.90;;;;;;4715194;30;19954;-89
2022/07/31 11:14:57;;;;;;;18.05;11.35;;;20.50;99.90;;;;;;4749401;30;20509;-88
2022/07/31 11:24:57;;;;;;;15.45;11.30;;;20.40;99.90;;;;;;4677159;30;20062;-89
2022/07/31 11:28:22;;;;;;;21.77;13.48;;;20.50;99.90;;;;;;4698001;30;20061;-90
2022/07/31 11:39:25;;;;;;;;;;;;;;;;;;;;;
2022/07/31 11:42:33;;;;;;;19.98;13.55;;;20.50;99.90;;;;;;4866772;24;20056;-90
2022/07/31 12:05:05;;;;;;;15.95;12.13;;;20.10;99.90;;;;;;4706346;30;20122;-96
2022/07/31 12:21:30;;;;;;;20.38;13.27;;;19.80;99.90;;;;;;4569196;24;20056;-87
2022/07/31 12:48:47;;;;;;;13.98;10.77;;;19.60;99.90;;;;;;5153726;24;20059;-96
2022/07/31 12:52:30;;;;;;;;;;;;;;;;;;;;;
2022/07/31 12:58:09;;;;;;;12.82;9.45;;;19.70;99.90;;;;;;4766317;30;20067;-92
2022/07/31 13:04:52;;;;;;;;;;;;;;;;;;;;;
2022/07/31 13:07:32;;;;;;;14.27;11.20;;;19.80;99.90;;;;;;4681200;30;20049;-91
2022/07/31 13:10:11;;;;;;;16.75;12.50;;;19.90;99.90;;;;;;4742550;30;20055;-91
2022/07/31 13:12:50;;;;;;;;;;;;;;;;;;;;;
2022/07/31 13:16:22;;;;;;;16.52;12.75;;;20.00;99.90;;;;;;4770246;30;20062;-91
2022/07/31 13:20:01;;;;;;;16.25;12.52;;;19.90;99.90;;;;;;4763688;30;20193;-91
2022/07/31 13:23:27;;;;;;;;;;;;;;;;;;;;;
2022/07/31 13:26:00;;;;;;;19.35;15.13;;;19.90;99.90;;;;;;4766509;29;20063;-91
2022/07/31 13:34:47;;;;;;;18.58;11.75;;;20.00;99.90;;;;;;4755934;30;20051;-89
2022/07/31 13:37:13;;;;;;;17.67;12.15;;;20.00;99.90;;;;;;4754783;30;20051;-87
2022/07/31 13:39:39;;;;;;;19.33;12.68;;;19.90;99.90;;;;;;4754281;30;20856;-88
2022/07/31 13:42:08;;;;;;;23.10;13.10;;;19.80;99.90;;;;;;4754350;30;20058;-89
2022/07/31 13:44:57;;;;;;;13.98;11.63;;;19.80;99.90;;;;;;4754683;30;20054;-89
2022/07/31 13:47:25;;;;;;;21.73;12.43;;;19.70;99.90;;;;;;4769147;30;20055;-88
2022/07/31 13:49:51;;;;;;;18.40;11.52;;;19.70;99.90;;;;;;4754185;30;20070;-88
2022/07/31 13:52:17;;;;;;;18.00;11.10;;;19.70;99.90;;;;;;4754847;30;20088;-90
2022/07/31 13:54:43;;;;;;;12.68;10.25;;;19.80;99.90;;;;;;4755222;30;20129;-89
2022/07/31 13:57:11;;;;;;;11.85;9.48;;;19.80;99.90;;;;;;4753715;30;20146;-90
2022/07/31 13:59:37;;;;;;;8.25;5.95;;;19.80;99.90;;;;;;4769125;30;20055;-89
2022/07/31 14:02:03;;;;;;;10.95;7.50;;;19.80;99.90;;;;;;4768510;30;20054;-89
2022/07/31 14:04:30;;;;;;;8.00;5.93;;;19.70;99.90;;;;;;4769043;30;20055;-88
2022/07/31 14:06:55;;;;;;;8.25;5.68;;;19.70;99.90;;;;;;4769343;30;20102;-87
2022/07/31 14:09:26;;;;;;;10.52;6.97;;;19.80;99.90;;;;;;4768126;30;20087;-87
2022/07/31 14:12:04;;;;;;;8.80;6.25;;;19.90;99.90;;;;;;4768424;30;20055;-87
2022/07/31 14:14:40;;;;;;;8.63;5.88;;;19.90;99.90;;;;;;4769442;30;20086;-89
2022/07/31 14:17:14;;;;;;;10.40;5.82;;;20.10;99.90;;;;;;4768558;30;20086;-88
2022/07/31 14:19:41;;;;;;;11.63;5.75;;;20.20;99.90;;;;;;4768349;30;20508;-88
2022/07/31 14:22:10;;;;;;;7.03;4.65;;;20.30;99.90;;;;;;4768712;30;20466;-90
2022/07/31 14:24:36;;;;;;;5.65;3.42;;;20.40;99.90;;;;;;4768551;30;20059;-87
2022/07/31 14:27:02;;;;;;;6.32;3.15;;;20.50;99.90;;;;;;4771881;30;20055;-89
2022/07/31 14:29:28;;;;;;;4.07;3.08;;;20.60;99.90;;;;;;4772390;30;20519;-88
2022/07/31 14:31:57;;;;;;;4.25;2.40;;;20.80;99.90;;;;;;4771520;30;20047;-88
2022/07/31 14:34:24;;;;;;;5.70;2.22;;;20.80;99.90;;;;;;4772100;30;20147;-89
2022/07/31 14:36:50;;;;;;;6.15;2.70;;;21.00;99.90;;;;;;4770951;30;20091;-89
2022/07/31 14:39:16;;;;;;;5.18;2.78;;;21.00;99.90;;;;;;4771142;30;20121;-88
2022/07/31 14:41:42;;;;;;;3.78;2.00;;;21.10;99.90;;;;;;4766395;30;20084;-88
2022/07/31 14:44:08;;;;;;;3.53;1.60;;;21.10;99.90;;;;;;4757061;30;20134;-88
2022/07/31 14:46:34;;;;;;;2.42;1.30;;;21.20;99.90;;;;;;4756689;30;20142;-86
2022/07/31 14:49:01;;;;;;;4.10;1.58;;;21.10;99.90;;;;;;4756316;30;20466;-87
2022/07/31 14:51:27;;;;;;;3.42;1.35;;;21.20;99.90;;;;;;4770908;30;20874;-88
2022/07/31 14:53:53;;;;;;;5.03;1.60;;;21.20;99.90;;;;;;4771186;30;20051;-88
2022/07/31 14:56:19;;;;;;;2.70;1.40;;;21.20;99.90;;;;;;4756774;30;20104;-89
2022/07/31 14:58:45;;;;;;;2.58;1.80;;;21.20;99.90;;;;;;4757164;30;20048;-88
2022/07/31 15:01:22;;;;;;;4.60;1.60;;;21.20;99.90;;;;;;4756560;30;20047;-88
2022/07/31 15:03:48;;;;;;;2.90;1.58;;;21.20;99.90;;;;;;4756520;30;20462;-85
2022/07/31 15:06:19;;;;;;;3.35;1.75;;;21.30;99.90;;;;;;4756695;30;20051;-89
2022/07/31 15:08:45;;;;;;;3.55;2.00;;;21.40;99.90;;;;;;4761863;30;20062;-86
2022/07/31 15:11:11;;;;;;;5.63;2.60;;;21.50;99.90;;;;;;4756656;30;20047;-89
2022/07/31 15:13:37;;;;;;;5.30;2.47;;;21.80;99.90;;;;;;4756811;30;20051;-89